Time;durP1;ratioP1;P1;durP2;ratioP2;P2;SDS_P1;SDS_P2;PMS_P1;PMS_P2;Temp;Humidity;BMP_temperature;BMP_pressure;BME280_temperature;BME280_humidity;BME280_pressure;Samples;Min_cycle;Max_cycle;Signal;HPM_P1;HPM_P2
2022/03/15 00:01:45;;;;;;;5.20;2.53;;;4.90;99.90;;;;;;5045716;28;20204;-87
2022/03/15 00:04:11;;;;;;;5.20;2.33;;;5.60;99.90;;;;;;5078479;28;20202;-86
2022/03/15 00:06:36;;;;;;;7.03;2.33;;;5.70;99.90;;;;;;5048581;28;20180;-85
2022/03/15 00:09:02;;;;;;;14.00;6.30;;;;;;;;;;5044803;28;20456;-86
2022/03/15 00:11:29;;;;;;;7.70;4.88;;;5.70;99.90;;;;;;5041172;28;20172;-87
2022/03/15 00:13:54;;;;;;;11.85;6.50;;;7.60;99.90;;;;;;5048856;28;20185;-87
2022/03/15 00:16:20;;;;;;;16.53;9.53;;;5.70;99.90;;;;;;5050948;28;20179;-86
2022/03/15 00:18:46;;;;;;;17.47;8.03;;;5.70;99.90;;;;;;5048505;28;20244;-87
2022/03/15 00:21:12;;;;;;;10.98;5.85;;;5.70;99.90;;;;;;5046218;28;20205;-87
2022/03/15 00:23:38;;;;;;;16.57;6.70;;;5.70;99.90;;;;;;5046193;28;20205;-88
2022/03/15 00:26:04;;;;;;;11.98;6.15;;;5.70;99.90;;;;;;5034436;28;20181;-87
2022/03/15 00:28:31;;;;;;;10.87;6.60;;;5.80;99.90;;;;;;5050091;28;20201;-87
2022/03/15 00:30:57;;;;;;;15.00;5.43;;;5.80;99.90;;;;;;5059919;28;20172;-87
2022/03/15 00:33:24;;;;;;;12.50;6.27;;;;;;;;;;5067625;28;20211;-87
2022/03/15 00:35:51;;;;;;;11.95;5.97;;;5.80;99.90;;;;;;5058334;28;20183;-88
2022/03/15 00:38:16;;;;;;;11.05;5.55;;;5.80;99.90;;;;;;5046637;28;20200;-87
2022/03/15 00:40:42;;;;;;;5.50;3.90;;;;;;;;;;5045043;28;20204;-88
2022/03/15 00:43:08;;;;;;;10.00;6.10;;;5.70;99.90;;;;;;5032053;28;20201;-87
2022/03/15 00:45:34;;;;;;;10.70;6.70;;;5.70;99.90;;;;;;5062852;28;20450;-86
2022/03/15 00:47:59;;;;;;;11.27;6.88;;;5.80;99.90;;;;;;5066004;28;20189;-87
2022/03/15 00:50:28;;;;;;;10.60;4.77;;;5.80;99.90;;;;;;5042929;28;20178;-86
2022/03/15 00:52:53;;;;;;;3.53;2.72;;;5.70;99.90;;;;;;5043684;28;20176;-87
2022/03/15 00:55:19;;;;;;;5.30;3.60;;;5.60;99.90;;;;;;5041575;28;20212;-87
2022/03/15 00:57:45;;;;;;;11.53;5.13;;;;;;;;;;5058877;28;20232;-87
2022/03/15 01:00:12;;;;;;;12.82;6.22;;;5.60;99.90;;;;;;5046508;28;20453;-86
2022/03/15 01:02:38;;;;;;;9.00;5.25;;;5.50;99.90;;;;;;5059454;28;20232;-87
2022/03/15 01:05:04;;;;;;;7.33;5.23;;;5.50;99.90;;;;;;5041614;28;20185;-87
2022/03/15 01:07:30;;;;;;;9.07;6.17;;;5.50;99.90;;;;;;5043915;28;20169;-87
2022/03/15 01:09:55;;;;;;;11.90;4.40;;;5.50;99.90;;;;;;5045555;28;20505;-87
2022/03/15 01:12:21;;;;;;;8.03;4.70;;;5.40;99.90;;;;;;5043967;28;20185;-87
2022/03/15 01:14:47;;;;;;;9.73;5.40;;;5.20;99.90;;;;;;5047504;28;20645;-88
2022/03/15 01:17:12;;;;;;;6.37;4.57;;;5.20;99.90;;;;;;5064398;28;20243;-87
2022/03/15 01:19:38;;;;;;;9.10;6.50;;;5.10;99.90;;;;;;5041727;28;20510;-87
2022/03/15 01:22:04;;;;;;;5.97;3.43;;;5.10;99.90;;;;;;5044963;28;20178;-88
2022/03/15 01:24:30;;;;;;;9.30;4.73;;;5.10;99.90;;;;;;5047854;28;20173;-87
2022/03/15 01:26:56;;;;;;;10.90;5.80;;;5.00;99.90;;;;;;5058552;28;20445;-88
2022/03/15 01:29:25;;;;;;;13.95;8.07;;;4.90;99.90;;;;;;5039742;28;20197;-88
2022/03/15 01:31:51;;;;;;;12.40;7.95;;;4.80;99.90;;;;;;5066078;28;20173;-86
2022/03/15 01:34:16;;;;;;;13.67;7.40;;;4.80;99.90;;;;;;5044444;28;20248;-87
2022/03/15 01:36:42;;;;;;;12.10;6.27;;;4.80;99.90;;;;;;5038631;28;20192;-86
2022/03/15 01:39:08;;;;;;;12.32;6.63;;;4.80;99.90;;;;;;5040075;28;20718;-86
2022/03/15 01:41:38;;;;;;;12.60;7.50;;;4.90;99.90;;;;;;5061851;28;20189;-86
2022/03/15 01:44:11;;;;;;;14.18;7.28;;;4.90;99.90;;;;;;5042593;28;20212;-88
2022/03/15 01:46:37;;;;;;;17.42;7.15;;;4.80;99.90;;;;;;5062597;28;20189;-88
2022/03/15 01:49:03;;;;;;;10.33;7.53;;;4.60;99.90;;;;;;5054950;28;20220;-88
2022/03/15 01:51:29;;;;;;;17.77;7.00;;;;;;;;;;5045027;28;20173;-87
2022/03/15 01:53:55;;;;;;;10.20;6.83;;;;;;;;;;5031352;28;20173;-87
2022/03/15 01:56:20;;;;;;;14.90;7.75;;;4.20;99.90;;;;;;5045661;28;20435;-86
2022/03/15 01:58:46;;;;;;;21.40;8.97;;;;;;;;;;5044862;28;20559;-87
2022/03/15 02:01:12;;;;;;;20.03;9.20;;;4.10;99.90;;;;;;5029077;28;20186;-87
2022/03/15 02:03:38;;;;;;;22.80;8.57;;;5.00;99.90;;;;;;5042726;28;20487;-87
2022/03/15 02:06:05;;;;;;;14.93;8.73;;;3.80;99.90;;;;;;5043919;28;20677;-87
2022/03/15 02:08:31;;;;;;;14.73;7.80;;;4.20;99.90;;;;;;5048713;28;20189;-87
2022/03/15 02:10:57;;;;;;;16.10;8.63;;;4.20;99.90;;;;;;5045550;28;20176;-87
2022/03/15 02:13:23;;;;;;;17.77;8.77;;;4.20;99.90;;;;;;5049516;28;20189;-87
2022/03/15 02:15:49;;;;;;;13.38;7.57;;;4.20;99.90;;;;;;5044718;28;20178;-88
2022/03/15 02:18:15;;;;;;;14.80;8.20;;;4.20;99.90;;;;;;5046527;28;20212;-87
2022/03/15 02:20:41;;;;;;;9.77;7.50;;;;;;;;;;5032038;28;20451;-87
2022/03/15 02:23:07;;;;;;;13.13;8.40;;;;;;;;;;5061408;28;20259;-87
2022/03/15 02:25:32;;;;;;;14.80;7.43;;;4.50;99.90;;;;;;5048305;28;20480;-87
2022/03/15 02:27:58;;;;;;;17.93;8.30;;;;;;;;;;5049596;28;20201;-87
2022/03/15 02:30:27;;;;;;;14.52;7.32;;;;;;;;;;5048792;28;20181;-86
2022/03/15 02:32:54;;;;;;;16.90;7.85;;;4.60;99.90;;;;;;5060146;28;20181;-87
2022/03/15 02:35:22;;;;;;;17.85;8.93;;;7.70;99.90;;;;;;5044816;28;20184;-86
2022/03/15 02:37:48;;;;;;;13.38;8.35;;;3.60;99.90;;;;;;5038229;28;20183;-86
2022/03/15 02:40:14;;;;;;;10.30;7.17;;;;;;;;;;5043493;28;20291;-84
2022/03/15 02:42:40;;;;;;;13.57;7.77;;;;;;;;;;5061762;28;20209;-86
2022/03/15 02:45:06;;;;;;;15.02;7.75;;;4.40;99.90;;;;;;5032347;28;20415;-86
2022/03/15 02:47:32;;;;;;;11.02;8.10;;;4.50;99.90;;;;;;5052299;28;20215;-86
2022/03/15 02:49:57;;;;;;;10.87;7.00;;;4.50;99.90;;;;;;5046525;28;20607;-86
2022/03/15 02:52:26;;;;;;;15.10;7.80;;;;;;;;;;5044034;28;20272;-87
2022/03/15 02:54:52;;;;;;;12.15;6.85;;;4.70;99.90;;;;;;5034864;28;20185;-87
2022/03/15 02:57:21;;;;;;;12.25;7.20;;;4.70;99.90;;;;;;5061259;28;20189;-87
2022/03/15 02:59:46;;;;;;;10.93;6.72;;;7.00;99.90;;;;;;5042511;28;20275;-88
2022/03/15 03:02:13;;;;;;;10.70;6.63;;;4.50;99.90;;;;;;5039704;28;20651;-87
2022/03/15 03:04:39;;;;;;;19.27;8.45;;;5.00;99.90;;;;;;5039544;28;20184;-86
2022/03/15 03:07:06;;;;;;;9.33;6.70;;;;;;;;;;5041733;28;20169;-90
2022/03/15 03:09:32;;;;;;;13.60;7.57;;;4.60;99.90;;;;;;5032179;28;20208;-87
2022/03/15 03:11:58;;;;;;;11.43;7.50;;;4.60;99.90;;;;;;5063725;28;20173;-85
2022/03/15 03:14:25;;;;;;;13.48;7.47;;;4.60;99.90;;;;;;5043905;28;20837;-87
2022/03/15 03:16:51;;;;;;;10.30;7.22;;;4.50;99.90;;;;;;5032341;28;20181;-87
2022/03/15 03:19:17;;;;;;;14.80;7.15;;;4.40;99.90;;;;;;5043026;28;20215;-88
2022/03/15 03:21:44;;;;;;;15.13;7.30;;;5.80;99.90;;;;;;5041612;28;20182;-87
2022/03/15 03:24:10;;;;;;;13.07;7.55;;;4.60;99.90;;;;;;5041637;28;20280;-87
2022/03/15 03:26:40;;;;;;;18.27;7.57;;;4.30;99.90;;;;;;5044596;28;20185;-87
2022/03/15 03:29:09;;;;;;;11.35;6.38;;;7.50;99.90;;;;;;5042825;28;20239;-87
2022/03/15 03:31:39;;;;;;;11.55;5.60;;;4.80;99.90;;;;;;5045527;28;20668;-87
2022/03/15 03:34:07;;;;;;;8.10;6.20;;;4.00;99.90;;;;;;5047941;28;20177;-87
2022/03/15 03:36:34;;;;;;;10.77;6.18;;;4.60;99.90;;;;;;5044732;28;20270;-87
2022/03/15 03:39:00;;;;;;;12.40;6.75;;;4.60;99.90;;;;;;5061897;28;20260;-87
2022/03/15 03:41:26;;;;;;;11.00;7.78;;;4.60;99.90;;;;;;5048386;28;20769;-87
2022/03/15 03:43:52;;;;;;;13.37;6.57;;;;;;;;;;5045739;28;20209;-86
2022/03/15 03:46:18;;;;;;;12.27;6.65;;;4.60;99.90;;;;;;5030455;28;20180;-87
2022/03/15 03:48:44;;;;;;;13.83;7.53;;;;;;;;;;5036728;28;20275;-86
2022/03/15 03:51:12;;;;;;;18.10;7.85;;;4.40;99.90;;;;;;5031929;28;20181;-87
2022/03/15 03:53:40;;;;;;;17.00;8.50;;;3.90;99.90;;;;;;5060244;28;20631;-87
2022/03/15 03:56:06;;;;;;;17.38;8.38;;;4.20;99.90;;;;;;5044543;28;20267;-87
2022/03/15 03:58:34;;;;;;;14.10;6.93;;;4.00;99.90;;;;;;5045426;28;20256;-87
2022/03/15 04:01:04;;;;;;;11.05;6.97;;;5.70;99.90;;;;;;5048198;28;20559;-87
2022/03/15 04:03:33;;;;;;;8.82;7.10;;;5.70;99.90;;;;;;5041605;28;20216;-86
2022/03/15 04:06:03;;;;;;;11.70;8.60;;;6.40;99.90;;;;;;5043021;28;20177;-88
2022/03/15 04:08:31;;;;;;;17.15;7.78;;;4.50;99.90;;;;;;5041028;28;20193;-85
2022/03/15 04:10:57;;;;;;;11.82;7.70;;;4.50;99.90;;;;;;5044586;28;20182;-86
2022/03/15 04:13:25;;;;;;;16.00;8.03;;;4.40;99.90;;;;;;5045970;28;20205;-87
2022/03/15 04:15:51;;;;;;;11.38;7.50;;;4.40;99.90;;;;;;5042122;28;20428;-86
2022/03/15 04:18:16;;;;;;;11.93;6.73;;;4.20;99.90;;;;;;5051182;28;21064;-86
2022/03/15 04:20:42;;;;;;;16.73;9.10;;;4.20;99.90;;;;;;5040109;28;20432;-85
2022/03/15 04:23:11;;;;;;;14.38;8.45;;;4.20;99.90;;;;;;5058942;28;20684;-85
2022/03/15 04:25:38;;;;;;;15.63;8.13;;;4.20;99.90;;;;;;5061712;28;20292;-86
2022/03/15 04:28:04;;;;;;;8.65;6.32;;;4.30;99.90;;;;;;5043194;28;20184;-85
2022/03/15 04:30:31;;;;;;;14.23;8.20;;;4.30;99.90;;;;;;5039659;28;20173;-87
2022/03/15 04:32:58;;;;;;;15.40;8.45;;;4.30;99.90;;;;;;5055474;28;20182;-86
2022/03/15 04:35:25;;;;;;;14.63;9.38;;;4.40;99.90;;;;;;5040967;28;20283;-86
2022/03/15 04:37:52;;;;;;;14.32;10.75;;;4.40;99.90;;;;;;5042577;28;20206;-86
2022/03/15 04:40:18;;;;;;;21.92;9.07;;;4.30;99.90;;;;;;5042987;28;20971;-86
2022/03/15 04:42:45;;;;;;;14.20;8.85;;;4.30;99.90;;;;;;5045482;28;20208;-86
2022/03/15 04:45:12;;;;;;;15.90;8.80;;;4.30;99.90;;;;;;5040110;28;20173;-86
2022/03/15 04:47:38;;;;;;;17.63;8.32;;;4.30;99.90;;;;;;5039558;28;20170;-86
2022/03/15 04:50:04;;;;;;;10.67;7.70;;;4.40;99.90;;;;;;5060132;28;20247;-87
2022/03/15 04:52:29;;;;;;;10.57;8.47;;;4.60;99.90;;;;;;5062901;28;20502;-87
2022/03/15 04:54:55;;;;;;;23.03;8.70;;;;;;;;;;5049726;28;20464;-87
2022/03/15 04:57:21;;;;;;;15.23;8.13;;;4.50;99.90;;;;;;5068243;28;20426;-85
2022/03/15 04:59:46;;;;;;;19.73;8.87;;;4.40;99.90;;;;;;5044850;28;20185;-85
2022/03/15 05:02:12;;;;;;;18.50;8.83;;;4.20;99.90;;;;;;5057295;28;20232;-86
2022/03/15 05:04:37;;;;;;;14.80;8.80;;;4.10;99.90;;;;;;5043861;28;20176;-87
2022/03/15 05:07:03;;;;;;;12.27;7.93;;;4.10;99.90;;;;;;5042557;28;20214;-87
2022/03/15 05:09:29;;;;;;;12.30;7.83;;;4.00;99.90;;;;;;5041868;28;20200;-87
2022/03/15 05:11:55;;;;;;;17.90;8.00;;;4.20;99.90;;;;;;5048516;28;20177;-87
2022/03/15 05:14:20;;;;;;;11.80;8.20;;;4.30;99.90;;;;;;5059448;28;20181;-86
2022/03/15 05:16:46;;;;;;;12.10;7.33;;;4.30;99.90;;;;;;5043460;28;20669;-85
2022/03/15 05:19:11;;;;;;;13.83;9.13;;;4.40;99.90;;;;;;5058114;28;20216;-85
2022/03/15 05:21:37;;;;;;;16.27;10.00;;;4.30;99.90;;;;;;5054864;28;20177;-85
2022/03/15 05:24:03;;;;;;;21.73;10.13;;;4.20;99.90;;;;;;5063728;28;20292;-84
2022/03/15 05:26:28;;;;;;;16.90;9.02;;;4.30;99.90;;;;;;5042398;28;20203;-82
2022/03/15 05:28:54;;;;;;;26.03;13.30;;;4.40;99.90;;;;;;5037038;28;20205;-83
2022/03/15 05:31:21;;;;;;;24.33;10.23;;;4.40;99.90;;;;;;5043894;28;20211;-84
2022/03/15 05:33:47;;;;;;;12.60;8.48;;;4.40;99.90;;;;;;5041540;28;20622;-84
2022/03/15 05:36:13;;;;;;;13.68;8.75;;;4.30;99.90;;;;;;5040123;28;20177;-85
2022/03/15 05:38:40;;;;;;;12.10;9.25;;;4.40;99.90;;;;;;5040968;28;20204;-81
2022/03/15 05:41:08;;;;;;;15.10;9.45;;;4.50;99.90;;;;;;5059619;28;20216;-84
2022/03/15 05:43:34;;;;;;;13.43;9.55;;;4.60;99.90;;;;;;5059974;28;20254;-85
2022/03/15 05:46:01;;;;;;;17.00;10.15;;;4.70;99.90;;;;;;5059325;28;20193;-84
2022/03/15 05:48:26;;;;;;;16.83;11.95;;;4.80;99.90;;;;;;5031502;28;20235;-83
2022/03/15 05:50:52;;;;;;;18.73;14.40;;;4.70;99.90;;;;;;5042137;28;20173;-85
2022/03/15 05:53:17;;;;;;;26.93;15.63;;;4.50;99.90;;;;;;5044479;28;20184;-86
2022/03/15 05:55:43;;;;;;;33.77;19.00;;;4.50;99.90;;;;;;5065519;28;20401;-85
2022/03/15 05:58:09;;;;;;;27.83;11.00;;;4.60;99.90;;;;;;5042229;28;20232;-84
2022/03/15 06:00:34;;;;;;;19.48;9.80;;;4.60;99.90;;;;;;5047784;28;20207;-85
2022/03/15 06:03:00;;;;;;;15.83;9.17;;;4.60;99.90;;;;;;5052844;28;20284;-85
2022/03/15 06:05:26;;;;;;;22.87;9.13;;;4.70;99.90;;;;;;5027297;28;20177;-85
2022/03/15 06:07:53;;;;;;;27.83;10.87;;;4.70;99.90;;;;;;5040727;28;20181;-85
2022/03/15 06:10:21;;;;;;;17.63;9.98;;;4.70;99.90;;;;;;5041404;28;20205;-85
2022/03/15 06:12:48;;;;;;;18.52;9.23;;;4.80;99.90;;;;;;5059467;22;20877;-85
2022/03/15 06:15:14;;;;;;;19.50;10.52;;;4.80;99.90;;;;;;5029937;28;20317;-85
2022/03/15 06:17:50;;;;;;;20.30;9.50;;;4.90;99.90;;;;;;5046765;28;20223;-84
2022/03/15 06:20:18;;;;;;;15.15;8.93;;;4.80;99.90;;;;;;5041794;28;20442;-85
2022/03/15 06:22:45;;;;;;;14.18;10.05;;;5.00;99.90;;;;;;5050274;28;20197;-83
2022/03/15 06:25:11;;;;;;;19.13;10.27;;;5.10;99.90;;;;;;5028377;28;20228;-85
2022/03/15 06:27:37;;;;;;;11.95;7.82;;;5.30;99.90;;;;;;5030344;28;20177;-83
2022/03/15 06:30:04;;;;;;;20.33;10.00;;;5.40;99.90;;;;;;5032736;28;20556;-83
2022/03/15 06:32:31;;;;;;;17.33;9.30;;;5.60;99.90;;;;;;5045784;28;20208;-83
2022/03/15 06:34:58;;;;;;;22.85;10.57;;;5.80;99.90;;;;;;5042860;28;20497;-84
2022/03/15 06:37:28;;;;;;;18.05;9.43;;;5.80;99.90;;;;;;5048499;28;20178;-85
2022/03/15 06:39:55;;;;;;;10.32;8.30;;;5.70;99.90;;;;;;5049405;28;20186;-83
2022/03/15 06:42:21;;;;;;;15.35;9.77;;;5.60;99.90;;;;;;5039470;28;20205;-85
2022/03/15 06:44:47;;;;;;;12.20;9.40;;;5.70;99.90;;;;;;5040850;28;20672;-83
2022/03/15 06:47:13;;;;;;;14.10;8.73;;;5.70;99.90;;;;;;5030803;28;20201;-83
2022/03/15 06:49:39;;;;;;;15.23;9.57;;;5.80;99.90;;;;;;5047027;28;20259;-84
2022/03/15 06:52:05;;;;;;;15.03;9.17;;;5.70;99.90;;;;;;5034407;28;20216;-85
2022/03/15 06:54:31;;;;;;;10.77;8.48;;;5.60;99.90;;;;;;5029476;28;20926;-85
2022/03/15 06:56:57;;;;;;;13.00;8.63;;;5.70;99.90;;;;;;5040989;28;20545;-83
2022/03/15 06:59:23;;;;;;;14.32;8.98;;;5.60;99.90;;;;;;5027823;28;20195;-85
2022/03/15 07:01:49;;;;;;;16.42;9.45;;;5.60;99.90;;;;;;5047710;28;20220;-85
2022/03/15 07:04:14;;;;;;;14.00;8.47;;;5.70;99.90;;;;;;5045310;28;20874;-83
2022/03/15 07:06:40;;;;;;;8.87;7.33;;;5.70;99.90;;;;;;5036655;28;20712;-85
2022/03/15 07:09:05;;;;;;;14.70;9.30;;;5.70;99.90;;;;;;5046744;28;20181;-85
2022/03/15 07:11:31;;;;;;;11.93;8.20;;;5.80;99.90;;;;;;5035895;28;20206;-83
2022/03/15 07:13:57;;;;;;;15.67;8.03;;;5.90;99.90;;;;;;5040643;28;20181;-83
2022/03/15 07:16:22;;;;;;;12.53;8.60;;;6.00;99.90;;;;;;5026068;28;20419;-87
2022/03/15 07:18:48;;;;;;;14.53;8.20;;;6.00;99.90;;;;;;5043697;28;20183;-84
2022/03/15 07:21:13;;;;;;;10.80;7.50;;;6.20;99.90;;;;;;5027498;28;20248;-86
2022/03/15 07:23:39;;;;;;;17.47;7.73;;;6.30;99.90;;;;;;5034570;28;20205;-83
2022/03/15 07:26:04;;;;;;;11.87;8.20;;;6.20;99.90;;;;;;5031702;28;20192;-82
2022/03/15 07:28:31;;;;;;;15.70;8.03;;;6.20;99.90;;;;;;5033558;28;20608;-84
2022/03/15 07:30:56;;;;;;;12.35;8.30;;;6.30;99.90;;;;;;5036191;28;20232;-86
2022/03/15 07:33:22;;;;;;;24.33;8.13;;;6.30;99.90;;;;;;5035537;28;20189;-83
2022/03/15 07:35:47;;;;;;;17.63;8.20;;;6.30;99.90;;;;;;5025583;28;20858;-81
2022/03/15 07:38:17;;;;;;;14.40;9.00;;;6.40;99.90;;;;;;5044097;28;20186;-83
2022/03/15 07:40:46;;;;;;;11.35;7.65;;;6.70;99.90;;;;;;5043065;28;20197;-83
2022/03/15 07:43:12;;;;;;;14.02;8.13;;;6.90;99.90;;;;;;5042351;28;20445;-84
2022/03/15 07:45:38;;;;;;;12.43;8.35;;;7.00;99.90;;;;;;5045623;28;20177;-85
2022/03/15 07:48:05;;;;;;;14.97;8.77;;;7.20;99.90;;;;;;5044796;28;20192;-84
2022/03/15 07:50:31;;;;;;;19.55;7.95;;;7.40;99.90;;;;;;5045044;28;20180;-84
2022/03/15 07:52:57;;;;;;;14.63;7.15;;;7.60;99.90;;;;;;5022503;28;20243;-81
2022/03/15 07:55:22;;;;;;;25.70;8.50;;;7.50;99.90;;;;;;5025519;28;20512;-82
2022/03/15 07:57:48;;;;;;;10.13;7.73;;;7.50;99.90;;;;;;5034297;28;20173;-83
2022/03/15 08:00:14;;;;;;;11.57;8.30;;;7.30;99.90;;;;;;5044748;28;20297;-83
2022/03/15 08:02:41;;;;;;;15.48;8.10;;;7.20;99.90;;;;;;5047082;28;20228;-82
2022/03/15 08:05:07;;;;;;;12.52;10.07;;;7.10;99.90;;;;;;5034306;28;20173;-83
2022/03/15 08:07:36;;;;;;;16.55;8.85;;;7.10;99.90;;;;;;5039080;28;20201;-83
2022/03/15 08:10:03;;;;;;;13.73;9.23;;;7.20;99.90;;;;;;5041472;28;20585;-83
2022/03/15 08:12:29;;;;;;;16.15;10.82;;;7.10;99.90;;;;;;5042504;28;20214;-82
2022/03/15 08:14:55;;;;;;;11.70;8.20;;;7.00;99.90;;;;;;5028032;28;20189;-83
2022/03/15 08:17:20;;;;;;;12.00;9.50;;;7.00;99.90;;;;;;5045504;28;20210;-86
2022/03/15 08:19:46;;;;;;;13.03;9.50;;;6.80;99.90;;;;;;5031168;28;20211;-84
2022/03/15 08:22:11;;;;;;;12.97;8.73;;;6.80;99.90;;;;;;5034316;28;20193;-82
2022/03/15 08:24:37;;;;;;;20.13;9.20;;;6.70;99.90;;;;;;5024579;28;20291;-83
2022/03/15 08:27:03;;;;;;;13.10;9.13;;;6.60;99.90;;;;;;5049390;28;20420;-82
2022/03/15 08:29:29;;;;;;;16.30;8.93;;;6.40;99.90;;;;;;5051876;28;20677;-82
2022/03/15 08:31:54;;;;;;;15.80;8.73;;;6.30;99.90;;;;;;5043478;28;20783;-82
2022/03/15 08:34:20;;;;;;;14.40;8.97;;;6.50;99.90;;;;;;5052941;28;20439;-81
2022/03/15 08:36:45;;;;;;;17.80;9.37;;;6.70;99.90;;;;;;5033841;28;20181;-82
2022/03/15 08:39:11;;;;;;;21.50;9.43;;;6.70;99.90;;;;;;5046558;28;20334;-84
2022/03/15 08:41:38;;;;;;;18.53;9.27;;;6.60;99.90;;;;;;5028432;28;20207;-82
2022/03/15 08:44:03;;;;;;;22.33;9.40;;;6.70;99.90;;;;;;5043111;28;20468;-81
2022/03/15 08:46:29;;;;;;;16.97;9.07;;;6.80;99.90;;;;;;5054051;28;20597;-83
2022/03/15 08:48:55;;;;;;;13.37;9.17;;;7.10;99.90;;;;;;5033407;28;20185;-81
2022/03/15 08:51:20;;;;;;;12.63;7.75;;;7.60;99.90;;;;;;5043510;28;20288;-86
2022/03/15 08:53:46;;;;;;;13.23;10.37;;;8.20;99.90;;;;;;5046540;28;20706;-84
2022/03/15 08:56:12;;;;;;;15.70;9.40;;;8.60;99.90;;;;;;5052798;28;20185;-83
2022/03/15 08:58:37;;;;;;;19.53;8.80;;;9.10;99.90;;;;;;5046471;28;20268;-85
2022/03/15 09:01:03;;;;;;;10.73;8.50;;;9.90;99.90;;;;;;5038205;28;20219;-82
2022/03/15 09:03:29;;;;;;;20.80;9.00;;;9.90;99.90;;;;;;5038216;28;20239;-81
2022/03/15 09:05:55;;;;;;;12.93;8.10;;;10.20;99.90;;;;;;5046119;28;20555;-81
2022/03/15 09:08:20;;;;;;;16.83;9.40;;;10.50;99.90;;;;;;5038467;28;20209;-84
2022/03/15 09:10:47;;;;;;;14.30;9.43;;;10.70;99.90;;;;;;5028468;28;20200;-81
2022/03/15 09:13:13;;;;;;;15.60;9.57;;;10.70;99.90;;;;;;5042875;28;20224;-82
2022/03/15 09:15:38;;;;;;;14.67;9.00;;;10.90;99.90;;;;;;5041343;28;20373;-81
2022/03/15 09:18:04;;;;;;;11.07;8.03;;;11.20;99.90;;;;;;5034319;28;20433;-82
2022/03/15 09:20:30;;;;;;;13.93;7.80;;;11.10;99.90;;;;;;5028640;28;20177;-82
2022/03/15 09:22:55;;;;;;;16.70;7.80;;;11.20;99.90;;;;;;5027901;28;20209;-85
2022/03/15 09:25:21;;;;;;;11.43;7.77;;;11.30;99.90;;;;;;5038785;28;20185;-83
2022/03/15 09:27:47;;;;;;;12.30;7.43;;;11.40;99.90;;;;;;5039879;28;20486;-82
2022/03/15 09:30:14;;;;;;;17.93;7.37;;;11.70;99.90;;;;;;5033388;28;20423;-81
2022/03/15 09:32:40;;;;;;;16.73;8.43;;;12.00;99.90;;;;;;5029377;28;20328;-82
2022/03/15 09:35:06;;;;;;;19.83;8.83;;;12.20;99.90;;;;;;5024764;28;20922;-82
2022/03/15 09:37:32;;;;;;;14.60;9.48;;;12.10;99.90;;;;;;5047504;28;20193;-83
2022/03/15 09:39:58;;;;;;;14.38;8.77;;;12.00;99.90;;;;;;5048126;28;20826;-82
2022/03/15 09:42:24;;;;;;;13.60;9.00;;;11.70;99.90;;;;;;5047721;28;20232;-82
2022/03/15 09:44:52;;;;;;;14.73;8.85;;;11.40;99.90;;;;;;5031109;28;20216;-81
2022/03/15 09:47:22;;;;;;;19.17;8.38;;;11.10;99.90;;;;;;5048175;28;20627;-82
2022/03/15 09:49:49;;;;;;;15.20;8.32;;;10.70;99.90;;;;;;5025157;28;20173;-81
2022/03/15 09:52:15;;;;;;;11.70;7.03;;;10.80;99.90;;;;;;5025234;28;20298;-83
2022/03/15 09:54:42;;;;;;;12.77;8.57;;;10.80;99.90;;;;;;5023620;28;20189;-85
2022/03/15 09:57:07;;;;;;;15.60;7.35;;;10.50;99.90;;;;;;5048458;28;20205;-83
2022/03/15 09:59:33;;;;;;;16.80;7.50;;;10.40;99.90;;;;;;5033365;28;20181;-85
2022/03/15 10:01:59;;;;;;;13.13;8.80;;;10.60;99.90;;;;;;5032217;28;20205;-84
2022/03/15 10:04:26;;;;;;;12.98;8.70;;;10.50;99.90;;;;;;5026324;28;20215;-80
2022/03/15 10:06:53;;;;;;;11.73;8.43;;;10.50;99.90;;;;;;5029975;28;20189;-83
2022/03/15 10:09:19;;;;;;;16.25;8.27;;;10.60;99.90;;;;;;5038400;28;20316;-85
2022/03/15 10:11:45;;;;;;;15.20;8.43;;;10.40;99.90;;;;;;4986405;28;1055679;-84
2022/03/15 10:14:11;;;;;;;17.80;9.30;;;10.40;99.90;;;;;;5045086;28;20197;-82
2022/03/15 10:16:42;;;;;;;14.00;8.50;;;10.20;99.90;;;;;;5042743;28;20449;-85
2022/03/15 10:19:09;;;;;;;21.88;9.30;;;10.10;99.90;;;;;;5042578;28;20268;-84
2022/03/15 10:21:49;;;;;;;10.20;8.50;;;10.10;99.90;;;;;;5025060;28;20189;-84
2022/03/15 10:24:22;;;;;;;15.65;9.38;;;10.10;99.90;;;;;;5033336;28;21143;-83
2022/03/15 10:26:52;;;;;;;11.75;8.55;;;9.80;99.90;;;;;;5050373;28;20178;-84
2022/03/15 10:29:19;;;;;;;19.20;9.50;;;9.60;99.90;;;;;;5040147;28;20181;-83
2022/03/15 10:31:46;;;;;;;14.90;9.07;;;9.70;99.90;;;;;;5024774;28;20190;-85
2022/03/15 10:34:13;;;;;;;20.95;10.82;;;10.00;99.90;;;;;;5026660;28;20185;-82
2022/03/15 10:36:45;;;;;;;13.38;9.00;;;10.20;99.90;;;;;;5044694;28;20897;-84
2022/03/15 10:39:13;;;;;;;21.35;9.18;;;10.10;99.90;;;;;;5051880;28;20473;-84
2022/03/15 10:41:55;;;;;;;18.48;9.65;;;10.00;99.90;;;;;;5046158;28;20263;-85
2022/03/15 10:44:36;;;;;;;18.20;10.27;;;9.70;99.90;;;;;;5025727;28;20833;-84
2022/03/15 10:47:10;;;;;;;12.18;9.00;;;9.70;99.90;;;;;;5023479;28;20173;-84
2022/03/15 10:49:56;;;;;;;17.65;9.30;;;9.80;99.90;;;;;;5044914;28;20576;-84
2022/03/15 10:52:48;;;;;;;11.82;9.30;;;9.90;99.90;;;;;;5044223;28;20731;-85
2022/03/15 10:55:28;;;;;;;16.02;9.82;;;10.00;99.90;;;;;;5021700;28;20725;-84
2022/03/15 10:57:59;;;;;;;15.13;9.75;;;10.00;99.90;;;;;;5022216;28;20239;-84
2022/03/15 11:00:28;;;;;;;25.00;10.30;;;10.10;99.90;;;;;;5026727;28;20215;-84
2022/03/15 11:02:54;;;;;;;27.60;10.45;;;10.10;99.90;;;;;;5041187;28;20209;-85
2022/03/15 11:05:34;;;;;;;18.38;11.30;;;10.20;99.90;;;;;;5021428;28;20199;-83
2022/03/15 11:08:10;;;;;;;23.83;11.02;;;10.40;99.90;;;;;;5046724;28;20560;-83
2022/03/15 11:10:37;;;;;;;14.27;9.95;;;10.40;99.90;;;;;;5042613;28;20243;-83
2022/03/15 11:13:11;;;;;;;22.73;11.00;;;10.40;99.90;;;;;;5020499;28;20264;-82
2022/03/15 11:15:57;;;;;;;22.48;11.10;;;10.40;99.90;;;;;;5022219;28;20185;-83
2022/03/15 11:18:26;;;;;;;15.05;10.10;;;10.40;99.90;;;;;;5035403;28;20282;-82
2022/03/15 11:20:52;;;;;;;15.50;8.90;;;10.30;99.90;;;;;;5024847;28;20181;-84
2022/03/15 11:23:21;;;;;;;11.65;7.00;;;10.10;99.90;;;;;;5046334;28;20201;-82
2022/03/15 11:25:53;;;;;;;16.83;7.82;;;10.00;99.90;;;;;;5036356;28;20185;-85
2022/03/15 11:28:26;;;;;;;11.48;7.35;;;10.00;99.90;;;;;;5027409;28;20272;-84
2022/03/15 11:30:53;;;;;;;12.57;6.78;;;9.90;99.90;;;;;;5039474;28;20190;-83
2022/03/15 11:33:19;;;;;;;19.75;6.60;;;9.90;99.90;;;;;;5021054;28;20208;-84
2022/03/15 11:35:45;;;;;;;11.20;6.53;;;9.60;99.90;;;;;;5024789;28;20185;-86
2022/03/15 11:38:13;;;;;;;9.93;7.00;;;9.60;99.90;;;;;;5040056;28;20189;-84
2022/03/15 11:40:40;;;;;;;10.23;6.80;;;9.60;99.90;;;;;;5036596;28;20968;-83
2022/03/15 11:43:33;;;;;;;12.13;7.50;;;9.70;99.90;;;;;;5032310;28;20269;-83
2022/03/15 11:46:23;;;;;;;8.60;5.55;;;9.70;99.90;;;;;;5019155;28;20170;-84
2022/03/15 11:49:00;;;;;;;16.52;7.90;;;9.60;99.90;;;;;;5025753;28;20181;-83
2022/03/15 11:52:03;;;;;;;20.17;8.77;;;9.50;99.90;;;;;;5044711;28;20223;-84
2022/03/15 11:54:36;;;;;;;12.43;6.75;;;9.40;99.90;;;;;;5022893;28;20200;-85
2022/03/15 11:57:24;;;;;;;9.45;7.22;;;9.30;99.90;;;;;;5039258;28;20227;-84
2022/03/15 11:59:52;;;;;;;13.77;6.07;;;9.30;99.90;;;;;;5029331;28;20219;-84
2022/03/15 12:02:27;;;;;;;9.90;7.53;;;9.20;99.90;;;;;;5046272;28;20204;-83
2022/03/15 12:04:53;;;;;;;9.85;6.70;;;9.40;99.90;;;;;;5030752;28;20212;-84
2022/03/15 12:07:36;;;;;;;8.90;5.85;;;9.60;99.90;;;;;;5033762;28;20188;-83
2022/03/15 12:10:09;;;;;;;10.02;6.20;;;9.50;99.90;;;;;;5034909;28;20351;-84
2022/03/15 12:12:35;;;;;;;9.50;5.68;;;9.60;99.90;;;;;;5045579;23;20632;-83
2022/03/15 12:15:15;;;;;;;10.90;7.22;;;9.40;99.90;;;;;;5040287;28;20560;-85
2022/03/15 12:17:48;;;;;;;8.25;5.50;;;9.40;99.90;;;;;;5059727;28;20162;-83
2022/03/15 12:20:16;;;;;;;8.43;5.88;;;9.40;99.90;;;;;;5060463;28;20226;-84
2022/03/15 12:22:43;;;;;;;12.13;6.10;;;;;;;;;;5053032;28;20185;-83
2022/03/15 12:25:19;;;;;;;15.38;7.22;;;9.40;99.90;;;;;;5048728;28;20181;-84
2022/03/15 12:27:46;;;;;;;15.52;6.38;;;9.30;99.90;;;;;;5029114;28;20205;-84
2022/03/15 12:30:24;;;;;;;7.63;5.78;;;10.80;99.90;;;;;;5047210;28;20205;-86
2022/03/15 12:32:54;;;;;;;12.52;7.10;;;9.20;99.90;;;;;;5029423;28;20189;-86
2022/03/15 12:35:30;;;;;;;8.60;5.88;;;9.10;99.90;;;;;;5046568;28;20188;-84
2022/03/15 12:38:07;;;;;;;13.25;8.20;;;9.10;99.90;;;;;;5052102;28;20226;-84
2022/03/15 12:40:33;;;;;;;13.30;7.32;;;9.20;99.90;;;;;;5049221;28;21032;-84
2022/03/15 12:43:01;;;;;;;9.80;4.93;;;9.30;99.90;;;;;;5047672;28;20263;-83
2022/03/15 12:45:29;;;;;;;13.05;5.90;;;9.20;99.90;;;;;;5026392;28;20439;-84
2022/03/15 12:48:06;;;;;;;12.35;5.60;;;9.40;99.90;;;;;;5030539;28;20192;-86
2022/03/15 12:50:35;;;;;;;6.95;5.43;;;9.50;99.90;;;;;;5044490;28;20269;-85
2022/03/15 12:53:14;;;;;;;8.50;6.15;;;9.60;99.90;;;;;;5037243;28;20932;-84